sensor_id;sensor_type;location;lat;lon;timestamp;pressure;altitude;pressure_sealevel;temperature;humidity
69717;BME280;67420;46.144;19.666;2023-12-29T00:08:53;100709.66;;;20.07;55.05
69717;BME280;67420;46.144;19.666;2023-12-29T00:18:55;100705.41;;;20.05;55.20
69717;BME280;67420;46.144;19.666;2023-12-29T00:28:57;100698.22;;;20.05;55.04
69717;BME280;67420;46.144;19.666;2023-12-29T00:38:59;100699.94;;;20.06;54.76
69717;BME280;67420;46.144;19.666;2023-12-29T00:49:01;100690.09;;;20.07;54.41
69717;BME280;67420;46.144;19.666;2023-12-29T00:59:04;100711.28;;;20.10;54.37
69717;BME280;67420;46.144;19.666;2023-12-29T01:09:06;100701.31;;;20.12;54.60
69717;BME280;67420;46.144;19.666;2023-12-29T01:19:10;100704.84;;;20.12;54.22
69717;BME280;67420;46.144;19.666;2023-12-29T01:29:13;100701.09;;;20.15;54.38
69717;BME280;67420;46.144;19.666;2023-12-29T01:39:15;100685.78;;;20.17;54.04
69717;BME280;67420;46.144;19.666;2023-12-29T01:49:19;100677.63;;;20.18;53.73
69717;BME280;67420;46.144;19.666;2023-12-29T01:59:24;100669.25;;;20.23;53.54
69717;BME280;67420;46.144;19.666;2023-12-29T02:09:27;100664.75;;;20.23;53.58
69717;BME280;67420;46.144;19.666;2023-12-29T02:19:45;100658.19;;;20.27;53.30
69717;BME280;67420;46.144;19.666;2023-12-29T02:30:11;100655.28;;;20.30;53.14
69717;BME280;67420;46.144;19.666;2023-12-29T02:40:16;100646.16;;;20.33;52.97
69717;BME280;67420;46.144;19.666;2023-12-29T02:50:18;100640.56;;;20.36;53.39
69717;BME280;67420;46.144;19.666;2023-12-29T03:00:20;100622.50;;;20.40;53.25
69717;BME280;67420;46.144;19.666;2023-12-29T03:10:22;100615.19;;;20.42;52.67
69717;BME280;67420;46.144;19.666;2023-12-29T03:20:25;100612.91;;;20.48;52.90
69717;BME280;67420;46.144;19.666;2023-12-29T03:30:26;100611.72;;;20.52;52.39
69717;BME280;67420;46.144;19.666;2023-12-29T03:40:28;100625.69;;;20.56;52.43
69717;BME280;67420;46.144;19.666;2023-12-29T03:50:30;100621.81;;;20.60;52.75
69717;BME280;67420;46.144;19.666;2023-12-29T04:00:32;100620.59;;;20.64;52.24
69717;BME280;67420;46.144;19.666;2023-12-29T04:10:35;100618.41;;;20.69;52.19
69717;BME280;67420;46.144;19.666;2023-12-29T04:20:36;100625.25;;;20.73;52.39
69717;BME280;67420;46.144;19.666;2023-12-29T04:30:39;100624.50;;;20.71;51.98
69717;BME280;67420;46.144;19.666;2023-12-29T04:40:41;100618.41;;;20.80;51.71
69717;BME280;67420;46.144;19.666;2023-12-29T04:50:43;100619.03;;;20.84;52.09
69717;BME280;67420;46.144;19.666;2023-12-29T05:00:45;100617.94;;;20.86;51.57
69717;BME280;67420;46.144;19.666;2023-12-29T05:10:47;100615.88;;;20.90;51.54
69717;BME280;67420;46.144;19.666;2023-12-29T05:20:49;100619.91;;;20.95;51.36
69717;BME280;67420;46.144;19.666;2023-12-29T05:30:51;100610.78;;;20.98;51.51
69717;BME280;67420;46.144;19.666;2023-12-29T05:40:53;100620.28;;;21.02;51.31
69717;BME280;67420;46.144;19.666;2023-12-29T05:50:55;100621.13;;;21.03;51.55
69717;BME280;67420;46.144;19.666;2023-12-29T06:00:57;100629.38;;;21.11;51.55
69717;BME280;67420;46.144;19.666;2023-12-29T06:11:00;100628.31;;;21.13;51.37
69717;BME280;67420;46.144;19.666;2023-12-29T06:21:02;100628.91;;;21.17;51.14
69717;BME280;67420;46.144;19.666;2023-12-29T06:31:05;100629.88;;;21.16;51.16
69717;BME280;67420;46.144;19.666;2023-12-29T06:41:07;100626.97;;;21.19;51.01
69717;BME280;67420;46.144;19.666;2023-12-29T06:51:09;100627.72;;;21.21;51.05
69717;BME280;67420;46.144;19.666;2023-12-29T07:01:17;100641.75;;;21.24;51.02
69717;BME280;67420;46.144;19.666;2023-12-29T07:11:19;100647.97;;;21.25;51.06
69717;BME280;67420;46.144;19.666;2023-12-29T07:21:21;100654.06;;;21.27;51.04
69717;BME280;67420;46.144;19.666;2023-12-29T07:31:23;100644.53;;;21.23;50.88
69717;BME280;67420;46.144;19.666;2023-12-29T07:41:25;100660.16;;;21.29;50.81
69717;BME280;67420;46.144;19.666;2023-12-29T07:51:27;100646.47;;;21.32;50.94
69717;BME280;67420;46.144;19.666;2023-12-29T08:01:29;100643.53;;;21.35;50.89
69717;BME280;67420;46.144;19.666;2023-12-29T08:11:31;100659.50;;;21.48;52.20
69717;BME280;67420;46.144;19.666;2023-12-29T08:21:33;100675.72;;;21.46;52.39
69717;BME280;67420;46.144;19.666;2023-12-29T08:31:38;100666.81;;;21.46;52.36
69717;BME280;67420;46.144;19.666;2023-12-29T08:41:40;100692.78;;;21.56;52.57
69717;BME280;67420;46.144;19.666;2023-12-29T08:51:42;100702.53;;;21.57;52.61
69717;BME280;67420;46.144;19.666;2023-12-29T09:01:44;100703.25;;;21.59;52.44
69717;BME280;67420;46.144;19.666;2023-12-29T09:11:46;100691.31;;;21.63;52.44
69717;BME280;67420;46.144;19.666;2023-12-29T09:21:49;100693.75;;;21.66;52.18
69717;BME280;67420;46.144;19.666;2023-12-29T09:31:51;100674.97;;;21.66;52.40
69717;BME280;67420;46.144;19.666;2023-12-29T09:41:58;100671.31;;;21.67;52.25
69717;BME280;67420;46.144;19.666;2023-12-29T09:52:03;100661.44;;;21.68;52.25
69717;BME280;67420;46.144;19.666;2023-12-29T10:02:14;100652.16;;;21.72;52.27
69717;BME280;67420;46.144;19.666;2023-12-29T10:12:18;100647.28;;;21.77;52.37
69717;BME280;67420;46.144;19.666;2023-12-29T10:22:36;100632.03;;;21.78;52.64
69717;BME280;67420;46.144;19.666;2023-12-29T10:32:40;100634.72;;;21.78;52.64
69717;BME280;67420;46.144;19.666;2023-12-29T10:42:55;100616.91;;;21.77;52.47
69717;BME280;67420;46.144;19.666;2023-12-29T10:53:10;100593.59;;;21.77;52.77
69717;BME280;67420;46.144;19.666;2023-12-29T11:03:17;100579.47;;;21.75;52.58
69717;BME280;67420;46.144;19.666;2023-12-29T11:13:19;100579.81;;;21.82;52.62
69717;BME280;67420;46.144;19.666;2023-12-29T11:23:21;100577.97;;;21.82;52.53
69717;BME280;67420;46.144;19.666;2023-12-29T11:33:38;100560.75;;;21.85;52.25
69717;BME280;67420;46.144;19.666;2023-12-29T11:43:42;100551.47;;;21.89;52.39
69717;BME280;67420;46.144;19.666;2023-12-29T11:53:44;100537.31;;;21.87;52.13
69717;BME280;67420;46.144;19.666;2023-12-29T12:03:46;100516.09;;;21.84;52.38
69717;BME280;67420;46.144;19.666;2023-12-29T12:13:48;100524.50;;;21.90;52.27
69717;BME280;67420;46.144;19.666;2023-12-29T12:23:50;100511.09;;;21.90;52.14
69717;BME280;67420;46.144;19.666;2023-12-29T12:33:57;100503.16;;;21.89;52.29
69717;BME280;67420;46.144;19.666;2023-12-29T12:44:11;100508.28;;;21.92;52.40
69717;BME280;67420;46.144;19.666;2023-12-29T12:54:17;100495.25;;;21.87;52.58
69717;BME280;67420;46.144;19.666;2023-12-29T13:04:21;100504.72;;;21.91;52.38
69717;BME280;67420;46.144;19.666;2023-12-29T13:14:23;100498.25;;;21.94;52.39
69717;BME280;67420;46.144;19.666;2023-12-29T13:24:27;100488.50;;;21.93;52.67
69717;BME280;67420;46.144;19.666;2023-12-29T13:34:50;100480.44;;;21.93;52.41
69717;BME280;67420;46.144;19.666;2023-12-29T13:44:55;100483.13;;;21.93;52.65
69717;BME280;67420;46.144;19.666;2023-12-29T13:54:58;100488.50;;;21.93;52.60
69717;BME280;67420;46.144;19.666;2023-12-29T14:05:31;100481.44;;;21.92;52.78
69717;BME280;67420;46.144;19.666;2023-12-29T14:15:35;100484.97;;;21.92;52.45
69717;BME280;67420;46.144;19.666;2023-12-29T14:25:37;100486.81;;;21.92;52.50
69717;BME280;67420;46.144;19.666;2023-12-29T14:35:39;100481.44;;;21.92;52.93
69717;BME280;67420;46.144;19.666;2023-12-29T14:45:41;100480.72;;;21.90;52.70
69717;BME280;67420;46.144;19.666;2023-12-29T14:55:44;100486.81;;;21.92;53.63
69717;BME280;67420;46.144;19.666;2023-12-29T15:05:47;100485.69;;;21.94;53.62
69717;BME280;67420;46.144;19.666;2023-12-29T15:15:49;100492.16;;;21.92;54.75
69717;BME280;67420;46.144;19.666;2023-12-29T15:25:51;100483.66;;;21.87;55.04
69717;BME280;67420;46.144;19.666;2023-12-29T15:35:53;100490.22;;;21.94;55.26
69717;BME280;67420;46.144;19.666;2023-12-29T15:45:55;100485.56;;;21.96;55.87
69717;BME280;67420;46.144;19.666;2023-12-29T15:55:57;100484.72;;;21.95;55.84
69717;BME280;67420;46.144;19.666;2023-12-29T16:06:04;100484.84;;;21.94;56.36
69717;BME280;67420;46.144;19.666;2023-12-29T16:16:07;100487.66;;;21.92;56.73
69717;BME280;67420;46.144;19.666;2023-12-29T16:26:09;100482.81;;;21.86;56.68
69717;BME280;67420;46.144;19.666;2023-12-29T16:36:13;100471.47;;;21.83;56.56
69717;BME280;67420;46.144;19.666;2023-12-29T16:46:15;100462.31;;;21.85;57.42
69717;BME280;67420;46.144;19.666;2023-12-29T16:56:17;100466.09;;;21.83;56.76
69717;BME280;67420;46.144;19.666;2023-12-29T17:06:19;100463.59;;;21.81;56.63
69717;BME280;67420;46.144;19.666;2023-12-29T17:16:22;100465.53;;;21.79;56.62
69717;BME280;67420;46.144;19.666;2023-12-29T17:26:28;100459.47;;;21.77;56.40
69717;BME280;67420;46.144;19.666;2023-12-29T17:36:30;100467.88;;;21.73;56.23
69717;BME280;67420;46.144;19.666;2023-12-29T17:46:32;100474.97;;;21.74;56.45
69717;BME280;67420;46.144;19.666;2023-12-29T17:56:34;100488.63;;;21.71;55.68
69717;BME280;67420;46.144;19.666;2023-12-29T18:06:36;100494.25;;;21.67;55.72
69717;BME280;67420;46.144;19.666;2023-12-29T18:16:41;100491.81;;;21.64;55.78
69717;BME280;67420;46.144;19.666;2023-12-29T18:26:43;100486.72;;;21.61;55.64
69717;BME280;67420;46.144;19.666;2023-12-29T18:36:45;100491.34;;;21.59;55.77
69717;BME280;67420;46.144;19.666;2023-12-29T18:46:47;100494.03;;;21.59;56.18
69717;BME280;67420;46.144;19.666;2023-12-29T18:56:49;100486.53;;;21.53;56.95
69717;BME280;67420;46.144;19.666;2023-12-29T19:06:51;100486.66;;;21.52;57.28
69717;BME280;67420;46.144;19.666;2023-12-29T19:16:53;100488.22;;;21.54;56.82
69717;BME280;67420;46.144;19.666;2023-12-29T19:26:55;100482.56;;;21.57;56.60
69717;BME280;67420;46.144;19.666;2023-12-29T19:36:58;100470.56;;;21.52;58.43
69717;BME280;67420;46.144;19.666;2023-12-29T19:47:01;100475.56;;;21.45;58.97
69717;BME280;67420;46.144;19.666;2023-12-29T19:57:04;100477.28;;;21.46;58.54
69717;BME280;67420;46.144;19.666;2023-12-29T20:07:07;100475.56;;;21.45;58.46
69717;BME280;67420;46.144;19.666;2023-12-29T20:17:09;100479.72;;;21.49;58.17
69717;BME280;67420;46.144;19.666;2023-12-29T20:27:11;100459.97;;;21.50;58.09
69717;BME280;67420;46.144;19.666;2023-12-29T20:37:13;100464.28;;;21.62;58.51
69717;BME280;67420;46.144;19.666;2023-12-29T20:47:15;100461.13;;;21.57;57.83
69717;BME280;67420;46.144;19.666;2023-12-29T20:57:18;100464.34;;;21.51;57.53
69717;BME280;67420;46.144;19.666;2023-12-29T21:07:23;100474.34;;;21.49;56.96
69717;BME280;67420;46.144;19.666;2023-12-29T21:17:25;100464.97;;;21.44;56.83
69717;BME280;67420;46.144;19.666;2023-12-29T21:27:30;100466.69;;;21.45;56.75
69717;BME280;67420;46.144;19.666;2023-12-29T21:37:35;100475.56;;;21.45;57.02
69717;BME280;67420;46.144;19.666;2023-12-29T21:47:37;100468.50;;;21.44;57.03
69717;BME280;67420;46.144;19.666;2023-12-29T21:57:43;100454.25;;;21.44;57.22
69717;BME280;67420;46.144;19.666;2023-12-29T22:07:45;100448.03;;;21.43;57.23
69717;BME280;67420;46.144;19.666;2023-12-29T22:17:47;100439.41;;;21.40;57.32
69717;BME280;67420;46.144;19.666;2023-12-29T22:27:49;100432.34;;;21.39;57.36
69717;BME280;67420;46.144;19.666;2023-12-29T22:37:51;100430.63;;;21.38;57.14
69717;BME280;67420;46.144;19.666;2023-12-29T22:47:53;100420.28;;;21.33;57.70
69717;BME280;67420;46.144;19.666;2023-12-29T22:57:55;100427.34;;;21.34;57.34
69717;BME280;67420;46.144;19.666;2023-12-29T23:07:59;100418.56;;;21.32;57.71
69717;BME280;67420;46.144;19.666;2023-12-29T23:18:02;100413.22;;;21.32;57.77
69717;BME280;67420;46.144;19.666;2023-12-29T23:28:04;100406.16;;;21.31;57.50
69717;BME280;67420;46.144;19.666;2023-12-29T23:38:07;100395.59;;;21.29;57.74
69717;BME280;67420;46.144;19.666;2023-12-29T23:48:11;100400.22;;;21.27;57.94
69717;BME280;67420;46.144;19.666;2023-12-29T23:58:13;100387.94;;;21.25;57.60
